Terminal Aerodrome Forecast
Issued by NWS

Home | Current Version | Previous Version | Text Only | Print | Product List | Glossary On
Versions: 1 2 3 4 5 6 7 8 9 10 11 12 13 14 15 16 17 18 19 20 21 22
000
FTUS45 KVEF 202200 AAB
TAFHND
TAF AMD
KHND 202233Z 2023/2118 18010G20KT P6SM -TSRA BKN080CB BKN120
     FM210000 18010KT P6SM SCT090 BKN120
     FM210300 17010KT P6SM BKN120
     FM210800 17007KT P6SM SCT120=

USA.gov is the U.S. government's official web portal to all federal, state and local government web resources and services.